首页
METAR-TAF:

METAR-TAF

机场 :

比利·畢曉普多倫多市機場

多伦多 City Centre, 安大略省, 加拿大

纬度: 43-38N, 经度: 079-24W, 海拔: 77米

当前天气观测

该预报发布于1小时和8分钟前的04:00 UTC
风速8节,风向东北,在之间变化
温度 5°C
湿度 56%
气压 1015 hPa
能見度: 14.5公里
阴天层高于4800英尺

METAR: CYTZ 260400Z AUTO 04008KT 010V080 9SM OVC048 05/M03 A2998 RMK SLP158

时间: 00:08 (05:08 UTC)

预报

该预报发布于3小时和29分钟前的01:39 UTC
预报有效从26日的 02点(UTC)到 27日的 02点(UTC)
风速8节,风向
能見度: 10公里
阴天层高于4000英尺
从 26日的 0800点(UTC)
风速10节,风向北转东北
能見度: 10公里
阴天层高于3000英尺
短暂存在
从 26日的 08点(UTC)到 26日的 10点(UTC)
能見度: 6.4公里
阴天层高于1500英尺
小雪
从 26日的 1000点(UTC)
风速10节,风向东北
能見度: 9.7公里
阴天层高于2500英尺
小雪
短暂存在
从 26日的 10点(UTC)到 26日的 14点(UTC)
能見度: 3.2公里
阴天层高于1500英尺
小雪
几率 40%
从 26日的 10点(UTC)到 26日的 14点(UTC)
小雪
从 26日的 1400点(UTC)
风速12节,风向东北,有时为22节阵风
阴天层高于1500英尺
小雪
从 26日的 2200点(UTC)
风速12节,风向东北,有时为22节阵风
能見度: 1.2公里
阴天层高于800英尺
小雪

TAF: CYTZ 260139Z 2602/2702 35008KT P6SM OVC040 FM260800 03010KT P6SM OVC030 TEMPO 2608/2610 4SM -SN OVC015 FM261000 04010KT 6SM -SN OVC025 TEMPO 2610/2614 2SM -SN OVC015 PROB40 2610/2614 11/2SM -SN FM261400 05012G22KT 11/2SM -SN OVC015 FM262200 05012G22KT 3/4SM -SN OVC008 RMK FCST BASED ON AUTO OBS. NXT FCST BY 260800Z

超过4000个机场的气象观测和天气预报(METAR&TAF报告)。

可查询的气象台以黄色和红色小点在地图上表示。

将鼠标移到小点上方,可查看气象台名称。

然后点击查看天气观测和预报。

如需切换地图:点击带黑十字的绿色按钮放大地图;点击带横线的绿色按钮缩小地图;或者点击绿色箭头查看邻近地区的地图。


METAR-TAF: